Time;durP1;ratioP1;P1;durP2;ratioP2;P2;SDS_P1;SDS_P2;PMS_P1;PMS_P2;Temp;Humidity;BMP_temperature;BMP_pressure;BME280_temperature;BME280_humidity;BME280_pressure;Samples;Min_cycle;Max_cycle;Signal;HPM_P1;HPM_P2
2022/03/24 00:00:23;;;;;;;3.10;2.80;;;;;;;;;;5035450;28;20667;-60
2022/03/24 00:02:48;;;;;;;3.85;2.58;;;;;;;;;;5030840;28;20205;-59
2022/03/24 00:05:14;;;;;;;7.38;2.75;;;;;;;;;;5044652;28;20186;-60
2022/03/24 00:07:41;;;;;;;3.92;3.00;;;;;;;;;;5039913;28;20178;-60
2022/03/24 00:10:07;;;;;;;4.05;2.75;;;;;;;;;;5033168;28;20198;-60
2022/03/24 00:12:34;;;;;;;3.90;2.60;;;;;;;;;;5021864;28;20206;-60
2022/03/24 00:14:59;;;;;;;4.15;2.50;;;;;;;;;;5017174;28;20178;-60
2022/03/24 00:17:24;;;;;;;6.90;3.10;;;;;;;;;;5028332;28;20189;-60
2022/03/24 00:19:50;;;;;;;6.28;3.08;;;;;;;;;;5034910;28;20181;-60
2022/03/24 00:22:15;;;;;;;4.32;2.85;;;;;;;;;;5039010;28;20190;-60
2022/03/24 00:24:42;;;;;;;3.78;2.28;;;;;;;;;;5039741;28;20268;-60
2022/03/24 00:27:07;;;;;;;3.88;2.45;;;;;;;;;;5035927;28;20240;-60
2022/03/24 00:29:32;;;;;;;6.13;3.15;;;;;;;;;;5032149;28;20186;-60
2022/03/24 00:31:58;;;;;;;4.53;3.90;;;;;;;;;;5037430;28;20199;-60
2022/03/24 00:34:23;;;;;;;4.70;3.97;;;;;;;;;;5016715;28;20170;-60
2022/03/24 00:36:48;;;;;;;7.13;4.45;;;;;;;;;;5018804;28;20826;-60
2022/03/24 00:39:14;;;;;;;5.35;3.92;;;;;;;;;;5036412;28;20190;-60
2022/03/24 00:41:40;;;;;;;7.32;3.40;;;;;;;;;;5046062;28;21148;-60
2022/03/24 00:44:07;;;;;;;4.50;3.15;;;;;;;;;;5040121;28;20209;-60
2022/03/24 00:46:33;;;;;;;3.80;3.30;;;;;;;;;;5036676;28;20321;-60
2022/03/24 00:48:58;;;;;;;6.00;3.78;;;;;;;;;;5042448;28;20178;-60
2022/03/24 00:51:24;;;;;;;5.43;4.50;;;;;;;;;;5038371;28;20275;-60
2022/03/24 00:53:49;;;;;;;5.10;3.10;;;;;;;;;;5025993;28;20189;-60
2022/03/24 00:56:15;;;;;;;4.00;3.28;;;;;;;;;;5017707;28;20906;-60
2022/03/24 00:58:40;;;;;;;4.47;3.53;;;;;;;;;;5019557;28;20684;-60
2022/03/24 01:01:07;;;;;;;4.30;3.05;;;;;;;;;;5030814;28;20214;-60
2022/03/24 01:03:32;;;;;;;3.95;3.00;;;;;;;;;;5037653;28;20169;-60
2022/03/24 01:05:58;;;;;;;4.40;3.20;;;;;;;;;;5033655;28;20178;-59
2022/03/24 01:08:23;;;;;;;4.18;3.03;;;;;;;;;;5031515;28;20175;-60
2022/03/24 01:10:49;;;;;;;4.47;3.35;;;;;;;;;;5028682;28;20285;-60
2022/03/24 01:13:15;;;;;;;4.32;3.38;;;;;;;;;;5032426;28;20221;-60
2022/03/24 01:15:45;;;;;;;6.47;3.25;;;;;;;;;;5035407;28;20209;-60
2022/03/24 01:18:11;;;;;;;3.00;2.70;;;;;;;;;;5037406;28;20193;-60
2022/03/24 01:20:36;;;;;;;3.08;2.75;;;;;;;;;;5041994;28;20569;-60
2022/03/24 01:23:01;;;;;;;5.80;3.50;;;;;;;;;;5040719;28;20181;-60
2022/03/24 01:25:27;;;;;;;5.97;3.20;;;;;;;;;;5039766;28;20178;-60
2022/03/24 01:27:52;;;;;;;6.38;3.30;;;;;;;;;;5037422;28;20192;-60
2022/03/24 01:30:17;;;;;;;5.45;3.63;;;;;;;;;;5029649;28;20182;-60
2022/03/24 01:32:46;;;;;;;5.40;3.72;;;;;;;;;;5034006;28;20198;-60
2022/03/24 01:35:11;;;;;;;4.18;3.10;;;;;;;;;;5032063;28;20185;-60
2022/03/24 01:37:36;;;;;;;6.05;3.75;;;;;;;;;;5035604;28;20178;-60
2022/03/24 01:40:03;;;;;;;6.03;3.90;;;;;;;;;;5037603;28;20177;-60
2022/03/24 01:42:28;;;;;;;5.53;3.65;;;;;;;;;;5044725;28;20185;-60
2022/03/24 01:44:56;;;;;;;3.97;2.88;;;;;;;;;;5039058;28;20601;-60
2022/03/24 01:47:22;;;;;;;5.47;3.45;;;;;;;;;;5036886;28;20239;-60
2022/03/24 01:49:47;;;;;;;4.32;3.40;;;;;;;;;;5038735;28;21474;-60
2022/03/24 01:52:13;;;;;;;5.43;2.60;;;;;;;;;;5036919;28;20206;-60
2022/03/24 01:54:43;;;;;;;3.97;2.65;;;;;;;;;;5036319;28;20178;-60
2022/03/24 01:57:12;;;;;;;5.80;3.20;;;;;;;;;;5019562;28;20265;-60
2022/03/24 01:59:37;;;;;;;5.68;3.33;;;;;;;;;;5016551;28;20213;-60
2022/03/24 02:02:06;;;;;;;4.05;2.80;;;;;;;;;;5019632;28;20225;-60
2022/03/24 02:04:35;;;;;;;4.05;2.88;;;;;;;;;;5032863;28;20182;-60
2022/03/24 02:07:00;;;;;;;9.10;3.70;;;;;;;;;;5035410;28;20185;-60
2022/03/24 02:09:26;;;;;;;5.20;3.50;;;;;;;;;;5032150;28;20188;-60
2022/03/24 02:11:52;;;;;;;3.65;3.00;;;;;;;;;;5042323;28;20205;-60
2022/03/24 02:14:17;;;;;;;4.57;3.58;;;;;;;;;;5030483;28;20757;-60
2022/03/24 02:16:46;;;;;;;8.63;2.75;;;;;;;;;;5033113;28;20185;-60
2022/03/24 02:19:12;;;;;;;5.20;3.72;;;;;;;;;;5017967;28;20188;-60
2022/03/24 02:21:39;;;;;;;4.25;3.80;;;;;;;;;;5019594;28;20229;-59
2022/03/24 02:24:04;;;;;;;12.52;4.07;;;;;;;;;;5028197;28;20212;-60
2022/03/24 02:26:29;;;;;;;9.23;3.75;;;;;;;;;;5038286;28;20178;-60
2022/03/24 02:28:56;;;;;;;6.30;4.00;;;;;;;;;;5046511;28;20663;-60
2022/03/24 02:31:22;;;;;;;7.20;3.92;;;;;;;;;;5045305;28;20193;-60
2022/03/24 02:33:48;;;;;;;6.10;3.38;;;;;;;;;;5038593;28;20614;-60
2022/03/24 02:36:13;;;;;;;6.82;3.65;;;;;;;;;;5033700;28;20210;-60
2022/03/24 02:38:38;;;;;;;7.10;4.55;;;;;;;;;;5029197;28;20212;-60
2022/03/24 02:41:04;;;;;;;4.07;3.20;;;;;;;;;;5019361;28;20855;-60
2022/03/24 02:43:30;;;;;;;9.02;3.70;;;;;;;;;;5021231;28;20185;-60
2022/03/24 02:45:56;;;;;;;6.65;3.88;;;;;;;;;;5038602;28;20269;-60
2022/03/24 02:48:22;;;;;;;5.10;4.05;;;;;;;;;;5039981;28;20197;-60
2022/03/24 02:50:49;;;;;;;8.10;4.20;;;;;;;;;;5047053;28;20194;-60
2022/03/24 02:53:14;;;;;;;6.93;4.43;;;;;;;;;;5040009;28;20201;-60
2022/03/24 02:55:39;;;;;;;6.50;4.47;;;;;;;;;;5045335;28;20289;-60
2022/03/24 02:58:05;;;;;;;9.57;4.55;;;;;;;;;;5044291;28;20227;-60
2022/03/24 03:00:30;;;;;;;5.20;3.50;;;;;;;;;;5038976;28;20184;-60
2022/03/24 03:02:55;;;;;;;8.98;3.83;;;;;;;;;;5039526;28;20718;-60
2022/03/24 03:05:21;;;;;;;11.02;3.85;;;;;;;;;;5042931;28;20674;-60
2022/03/24 03:07:47;;;;;;;3.95;3.55;;;;;;;;;;5041790;28;20186;-60
2022/03/24 03:10:13;;;;;;;11.10;3.85;;;;;;;;;;5031965;28;20666;-60
2022/03/24 03:12:38;;;;;;;7.47;4.22;;;;;;;;;;5042497;28;20267;-60
2022/03/24 03:15:04;;;;;;;5.75;3.80;;;;;;;;;;5042197;28;20616;-60
2022/03/24 03:17:29;;;;;;;5.80;3.30;;;;;;;;;;5041529;28;20205;-60
2022/03/24 03:19:55;;;;;;;5.20;3.15;;;;;;;;;;5043040;28;20223;-60
2022/03/24 03:22:21;;;;;;;4.05;3.50;;;;;;;;;;5038432;28;20264;-59
2022/03/24 03:24:46;;;;;;;9.45;3.47;;;;;;;;;;5039949;28;20611;-60
2022/03/24 03:27:12;;;;;;;9.02;4.60;;;;;;;;;;5041203;28;20207;-60
2022/03/24 03:29:37;;;;;;;7.47;4.40;;;;;;;;;;5043996;28;20181;-60
2022/03/24 03:32:03;;;;;;;6.90;4.03;;;;;;;;;;5044675;28;20202;-60
2022/03/24 03:34:28;;;;;;;6.70;3.83;;;;;;;;;;5048933;28;20240;-60
2022/03/24 03:36:54;;;;;;;6.22;3.80;;;;;;;;;;5046459;28;20190;-60
2022/03/24 03:39:19;;;;;;;6.47;3.63;;;;;;;;;;5032748;28;20194;-60
2022/03/24 03:41:45;;;;;;;4.32;3.60;;;;;;;;;;5044495;28;20693;-60
2022/03/24 03:44:11;;;;;;;4.63;3.65;;;;;;;;;;5038064;28;20184;-60
2022/03/24 03:46:36;;;;;;;6.38;4.18;;;;;;;;;;5039911;28;20356;-60
2022/03/24 03:49:02;;;;;;;5.97;4.13;;;;;;;;;;5036892;28;20190;-60
2022/03/24 03:51:29;;;;;;;8.80;5.18;;;;;;;;;;5037224;28;20632;-60
2022/03/24 03:53:55;;;;;;;12.30;4.75;;;;;;;;;;5040114;28;20301;-60
2022/03/24 03:56:21;;;;;;;11.27;4.15;;;;;;;;;;5042166;28;20269;-60
2022/03/24 03:58:47;;;;;;;5.72;3.72;;;;;;;;;;5039247;28;20184;-60
2022/03/24 04:01:12;;;;;;;10.15;3.80;;;;;;;;;;5037768;28;20733;-60
2022/03/24 04:03:38;;;;;;;8.35;4.18;;;;;;;;;;5024303;28;20177;-60
2022/03/24 04:06:06;;;;;;;10.38;4.30;;;;;;;;;;5018533;28;20182;-60
2022/03/24 04:08:31;;;;;;;9.77;4.00;;;;;;;;;;5019448;28;20244;-60
2022/03/24 04:10:57;;;;;;;10.57;4.05;;;;;;;;;;5036273;28;20186;-60
2022/03/24 04:13:22;;;;;;;6.50;4.60;;;;;;;;;;5040832;28;20594;-60
2022/03/24 04:15:48;;;;;;;6.90;5.00;;;;;;;;;;5042462;28;20184;-60
2022/03/24 04:18:14;;;;;;;6.75;4.30;;;;;;;;;;5035860;28;20663;-60
2022/03/24 04:20:40;;;;;;;7.13;4.28;;;;;;;;;;5037202;28;20181;-60
2022/03/24 04:23:06;;;;;;;5.78;4.32;;;;;;;;;;5038718;28;20178;-60
2022/03/24 04:25:32;;;;;;;6.47;4.13;;;;;;;;;;5017905;28;20273;-59
2022/03/24 04:27:57;;;;;;;7.93;3.63;;;;;;;;;;5018423;28;20181;-60
2022/03/24 04:30:23;;;;;;;6.07;4.32;;;;;;;;;;5023536;28;20179;-60
2022/03/24 04:32:49;;;;;;;9.30;4.07;;;;;;;;;;5036148;28;20205;-60
2022/03/24 04:35:15;;;;;;;7.45;4.03;;;;;;;;;;5037846;28;20189;-60
2022/03/24 04:37:40;;;;;;;7.43;4.30;;;;;;;;;;5034342;28;20197;-60
2022/03/24 04:40:06;;;;;;;5.72;4.53;;;;;;;;;;5038289;28;20574;-60
2022/03/24 04:42:32;;;;;;;10.05;4.22;;;;;;;;;;5040194;28;20177;-60
2022/03/24 04:44:57;;;;;;;5.60;3.85;;;;;;;;;;5030934;28;20188;-59
2022/03/24 04:47:22;;;;;;;8.13;4.07;;;;;;;;;;5016474;28;20675;-60
2022/03/24 04:49:48;;;;;;;10.70;4.55;;;;;;;;;;5018658;28;20198;-60
2022/03/24 04:52:13;;;;;;;7.32;3.80;;;;;;;;;;5032252;28;20731;-60
2022/03/24 04:54:38;;;;;;;8.55;4.70;;;;;;;;;;5030481;28;20169;-60
2022/03/24 04:57:04;;;;;;;9.95;4.70;;;;;;;;;;5034515;28;20182;-60
2022/03/24 04:59:30;;;;;;;5.53;3.95;;;;;;;;;;5035603;28;20181;-60
2022/03/24 05:01:58;;;;;;;8.23;4.30;;;;;;;;;;5039186;28;20675;-60
2022/03/24 05:04:24;;;;;;;10.23;3.92;;;;;;;;;;5036509;28;20213;-60
2022/03/24 05:06:52;;;;;;;7.25;3.85;;;;;;;;;;5039343;28;20874;-60
2022/03/24 05:09:17;;;;;;;6.57;3.95;;;;;;;;;;5037018;28;20178;-60
2022/03/24 05:11:43;;;;;;;4.78;4.00;;;;;;;;;;5038413;28;20252;-60
2022/03/24 05:14:08;;;;;;;9.85;5.90;;;;;;;;;;5032119;28;20198;-60
2022/03/24 05:16:34;;;;;;;8.63;3.97;;;;;;;;;;5031514;28;20170;-60
2022/03/24 05:18:59;;;;;;;6.25;3.78;;;;;;;;;;5034834;28;20652;-60
2022/03/24 05:21:24;;;;;;;8.55;4.40;;;;;;;;;;5038005;28;20178;-60
2022/03/24 05:23:50;;;;;;;7.30;4.65;;;;;;;;;;5027675;28;20576;-60
2022/03/24 05:26:20;;;;;;;7.50;4.28;;;;;;;;;;5035529;28;20251;-60
2022/03/24 05:28:45;;;;;;;11.55;4.72;;;;;;;;;;5016612;28;20182;-60
2022/03/24 05:31:11;;;;;;;8.20;4.40;;;;;;;;;;5016843;28;20250;-60
2022/03/24 05:33:36;;;;;;;8.07;4.68;;;;;;;;;;5023044;28;20174;-60
2022/03/24 05:36:02;;;;;;;8.70;4.60;;;;;;;;;;5031273;28;20175;-59
2022/03/24 05:38:28;;;;;;;7.53;4.85;;;;;;;;;;5042619;28;20173;-60
2022/03/24 05:40:54;;;;;;;10.43;5.40;;;;;;;;;;5038580;28;20170;-60
2022/03/24 05:43:21;;;;;;;13.98;6.10;;;;;;;;;;5042415;28;20177;-60
2022/03/24 05:45:47;;;;;;;9.52;5.18;;;;;;;;;;5036800;28;20189;-60
2022/03/24 05:48:12;;;;;;;8.65;5.25;;;;;;;;;;5026794;28;20186;-60
2022/03/24 05:50:40;;;;;;;10.95;4.90;;;;;;;;;;5016173;28;20925;-60
2022/03/24 05:53:06;;;;;;;6.30;3.78;;;;;;;;;;5017849;28;20226;-60
2022/03/24 05:55:34;;;;;;;10.15;4.72;;;;;;;;;;5034288;28;20775;-60
2022/03/24 05:57:59;;;;;;;15.50;5.82;;;;;;;;;;5032085;28;20200;-60
2022/03/24 06:00:24;;;;;;;11.18;5.50;;;;;;;;;;5033497;28;20177;-60
2022/03/24 06:02:50;;;;;;;11.40;5.70;;;;;;;;;;5033397;28;20308;-60
2022/03/24 06:05:16;;;;;;;10.23;5.03;;;;;;;;;;5036888;28;20177;-60
2022/03/24 06:07:41;;;;;;;12.85;4.90;;;;;;;;;;5034620;28;20253;-60
2022/03/24 06:10:07;;;;;;;6.88;4.25;;;;;;;;;;5017516;28;20277;-60
2022/03/24 06:12:33;;;;;;;10.43;4.47;;;;;;;;;;5016324;28;20206;-60
2022/03/24 06:14:58;;;;;;;7.95;4.53;;;;;;;;;;5020907;28;20178;-60
2022/03/24 06:17:24;;;;;;;8.10;4.80;;;;;;;;;;5036538;28;20173;-60
2022/03/24 06:19:50;;;;;;;8.60;4.10;;;;;;;;;;5033787;28;20210;-60
2022/03/24 06:22:15;;;;;;;10.30;4.13;;;;;;;;;;5036856;28;20178;-60
2022/03/24 06:24:41;;;;;;;7.72;4.20;;;;;;;;;;5037794;28;20178;-60
2022/03/24 06:27:06;;;;;;;8.50;4.10;;;;;;;;;;5036334;28;20236;-60
2022/03/24 06:29:31;;;;;;;4.57;4.18;;;;;;;;;;5037595;28;20186;-60
2022/03/24 06:31:57;;;;;;;7.35;3.92;;;;;;;;;;5015547;28;20256;-60
2022/03/24 06:34:22;;;;;;;7.20;4.38;;;;;;;;;;5016488;28;20998;-60
2022/03/24 06:36:48;;;;;;;7.47;4.60;;;;;;;;;;5023980;28;20202;-60
2022/03/24 06:39:13;;;;;;;7.60;4.45;;;;;;;;;;5038988;28;20170;-60
2022/03/24 06:41:38;;;;;;;6.95;4.15;;;;;;;;;;5036642;28;20572;-60
2022/03/24 06:44:06;;;;;;;5.25;4.38;;;;;;;;;;5034810;28;20181;-60
2022/03/24 06:46:32;;;;;;;10.23;5.13;;;;;;;;;;5039567;28;20182;-60
2022/03/24 06:48:57;;;;;;;7.25;5.03;;;;;;;;;;5038410;28;20203;-60
2022/03/24 06:51:23;;;;;;;8.80;4.97;;;;;;;;;;5037466;28;20213;-60
2022/03/24 06:53:48;;;;;;;9.20;4.53;;;;;;;;;;5035053;28;20267;-60
2022/03/24 06:56:14;;;;;;;12.23;6.30;;;;;;;;;;5036873;28;20170;-60
2022/03/24 06:58:39;;;;;;;5.97;4.72;;;;;;;;;;5033517;28;20644;-60
2022/03/24 07:01:04;;;;;;;9.57;5.60;;;;;;;;;;5034919;28;20178;-60
2022/03/24 07:03:30;;;;;;;5.75;5.25;;;;;;;;;;5031183;28;20173;-60
2022/03/24 07:05:55;;;;;;;8.85;6.63;;;;;;;;;;5043010;28;20170;-60
2022/03/24 07:08:22;;;;;;;7.93;4.80;;;;;;;;;;5040996;28;20177;-60
2022/03/24 07:10:48;;;;;;;8.35;4.90;;;;;;;;;;5043364;28;20176;-60
2022/03/24 07:13:13;;;;;;;7.95;4.88;;;;;;;;;;5037819;28;20917;-60
2022/03/24 07:15:39;;;;;;;8.52;5.45;;;;;;;;;;5038764;28;20186;-60
2022/03/24 07:18:04;;;;;;;8.80;4.47;;;;;;;;;;5040313;28;20253;-60
2022/03/24 07:20:29;;;;;;;6.63;4.55;;;;;;;;;;5043902;28;20565;-60
2022/03/24 07:22:57;;;;;;;6.35;4.57;;;;;;;;;;5036723;28;20182;-60
2022/03/24 07:25:23;;;;;;;6.90;4.32;;;;;;;;;;5038904;28;20223;-60
2022/03/24 07:27:49;;;;;;;8.50;4.63;;;;;;;;;;5043221;28;20173;-60
2022/03/24 07:30:14;;;;;;;8.75;5.43;;;;;;;;;;5034248;28;20201;-60
2022/03/24 07:32:41;;;;;;;10.07;4.40;;;;;;;;;;5046235;28;20229;-60
2022/03/24 07:35:07;;;;;;;9.20;5.22;;;;;;;;;;5038516;28;20841;-60
2022/03/24 07:37:33;;;;;;;9.85;4.65;;;;;;;;;;5039158;28;20243;-60
2022/03/24 07:39:58;;;;;;;8.63;4.80;;;;;;;;;;5037458;28;20182;-60
2022/03/24 07:42:24;;;;;;;9.10;5.18;;;;;;;;;;5036562;28;20293;-60
2022/03/24 07:44:49;;;;;;;10.93;6.47;;;;;;;;;;5030329;28;20182;-60
2022/03/24 07:47:14;;;;;;;11.88;5.43;;;;;;;;;;5033433;28;20182;-60
2022/03/24 07:49:40;;;;;;;8.35;4.30;;;;;;;;;;5033462;28;20198;-60
2022/03/24 07:52:10;;;;;;;7.97;4.80;;;;;;;;;;5028867;28;20281;-60
2022/03/24 07:54:45;;;;;;;11.20;5.50;;;;;;;;;;5040984;28;20182;-60
2022/03/24 07:57:10;;;;;;;6.03;5.03;;;;;;;;;;5037930;28;20266;-60
2022/03/24 07:59:36;;;;;;;18.75;6.80;;;;;;;;;;5038253;28;20272;-60
2022/03/24 08:02:01;;;;;;;92.90;13.35;;;;;;;;;;5035527;28;20229;-60
2022/03/24 08:04:26;;;;;;;13.98;6.47;;;;;;;;;;5041197;28;20178;-60
2022/03/24 08:06:52;;;;;;;14.48;5.90;;;;;;;;;;5041206;28;20623;-59
2022/03/24 08:09:18;;;;;;;10.82;5.82;;;;;;;;;;5043973;28;20177;-60
2022/03/24 08:11:43;;;;;;;15.60;5.90;;;;;;;;;;5039840;28;20213;-60
2022/03/24 08:14:09;;;;;;;11.45;5.60;;;;;;;;;;5038266;28;20173;-60
2022/03/24 08:16:34;;;;;;;11.75;6.20;;;;;;;;;;5024060;28;20737;-60
2022/03/24 08:19:00;;;;;;;10.75;5.72;;;;;;;;;;5018701;28;20273;-60
2022/03/24 08:21:26;;;;;;;15.02;5.53;;;;;;;;;;5024776;28;20675;-60
2022/03/24 08:23:51;;;;;;;9.38;5.03;;;;;;;;;;5035540;28;20174;-60
2022/03/24 08:26:17;;;;;;;9.30;5.05;;;;;;;;;;5037784;28;20184;-60
2022/03/24 08:28:42;;;;;;;7.38;5.00;;;;;;;;;;5036270;28;20680;-60
2022/03/24 08:31:08;;;;;;;10.25;5.30;;;;;;;;;;5044736;28;20173;-60
2022/03/24 08:33:33;;;;;;;7.93;4.97;;;;;;;;;;5039291;28;20210;-60
2022/03/24 08:35:58;;;;;;;10.75;5.50;;;;;;;;;;5041615;28;20664;-60
2022/03/24 08:38:24;;;;;;;13.13;5.47;;;;;;;;;;5016743;28;20178;-60
2022/03/24 08:40:51;;;;;;;9.70;6.15;;;;;;;;;;5018553;28;20174;-60
2022/03/24 08:43:16;;;;;;;12.15;6.13;;;;;;;;;;5029350;28;21095;-61
2022/03/24 08:45:41;;;;;;;9.32;5.20;;;;;;;;;;5045141;28;20178;-60
2022/03/24 08:48:07;;;;;;;15.20;5.78;;;;;;;;;;5034847;28;20624;-61
2022/03/24 08:50:33;;;;;;;7.57;5.38;;;;;;;;;;5032656;28;20702;-60
2022/03/24 08:52:58;;;;;;;8.90;5.95;;;;;;;;;;5034544;28;20206;-61
2022/03/24 08:55:23;;;;;;;10.02;6.43;;;;;;;;;;5044112;28;20685;-60
2022/03/24 08:57:49;;;;;;;11.65;5.50;;;;;;;;;;5024792;28;20678;-60
2022/03/24 09:00:16;;;;;;;8.18;5.63;;;;;;;;;;5016762;28;20182;-60
2022/03/24 09:02:43;;;;;;;7.90;5.60;;;;;;;;;;5018661;28;20202;-60
2022/03/24 09:05:09;;;;;;;25.77;11.05;;;;;;;;;;5033314;28;20199;-60
2022/03/24 09:07:34;;;;;;;12.77;6.40;;;;;;;;;;5046563;28;20267;-60
2022/03/24 09:10:00;;;;;;;12.68;6.43;;;;;;;;;;5042852;28;20178;-60
2022/03/24 09:12:25;;;;;;;7.95;5.70;;;;;;;;;;5039407;28;20316;-60
2022/03/24 09:14:50;;;;;;;12.82;6.63;;;;;;;;;;5039870;28;20182;-60
2022/03/24 09:17:15;;;;;;;11.32;7.18;;;;;;;;;;5028960;28;20174;-60
2022/03/24 09:19:41;;;;;;;8.23;6.45;;;;;;;;;;5022480;28;20174;-60
2022/03/24 09:22:06;;;;;;;9.60;5.90;;;;;;;;;;5017637;28;20194;-60
2022/03/24 09:24:32;;;;;;;10.85;6.20;;;;;;;;;;5021426;28;20182;-60
2022/03/24 09:26:57;;;;;;;10.30;6.30;;;;;;;;;;5040401;28;20272;-60
2022/03/24 09:29:23;;;;;;;9.52;6.38;;;;;;;;;;5030817;28;20173;-60
2022/03/24 09:31:49;;;;;;;9.48;5.90;;;;;;;;;;5027887;28;20289;-60
2022/03/24 09:34:15;;;;;;;9.13;6.00;;;;;;;;;;5038927;28;20182;-60
2022/03/24 09:36:40;;;;;;;11.18;6.18;;;;;;;;;;5035770;28;20653;-60
2022/03/24 09:39:07;;;;;;;10.50;6.57;;;;;;;;;;5031257;28;20182;-60
2022/03/24 09:41:33;;;;;;;7.22;6.38;;;;;;;;;;5015828;28;20182;-60
2022/03/24 09:43:58;;;;;;;7.95;6.35;;;;;;;;;;5016146;28;20592;-60
2022/03/24 09:46:26;;;;;;;12.60;6.35;;;;;;;;;;5027123;28;20181;-60
2022/03/24 09:48:52;;;;;;;8.25;6.28;;;;;;;;;;5032013;28;20185;-60
2022/03/24 09:51:17;;;;;;;11.70;6.97;;;;;;;;;;5038891;28;20178;-60
2022/03/24 09:53:43;;;;;;;13.60;6.40;;;;;;;;;;5033559;28;20206;-60
2022/03/24 09:56:08;;;;;;;8.80;6.50;;;;;;;;;;5037657;28;20662;-60
2022/03/24 09:58:34;;;;;;;8.45;5.75;;;;;;;;;;5031453;28;20174;-60
2022/03/24 10:01:02;;;;;;;13.02;7.07;;;;;;;;;;5039118;28;20177;-60
2022/03/24 10:03:28;;;;;;;10.07;6.00;;;;;;;;;;5035989;28;20261;-60
2022/03/24 10:05:55;;;;;;;8.77;6.07;;;;;;;;;;5037619;28;20174;-60
2022/03/24 10:08:20;;;;;;;9.73;6.03;;;;;;;;;;5035407;28;20296;-60
2022/03/24 10:10:45;;;;;;;10.25;6.05;;;;;;;;;;5031174;28;20263;-60
2022/03/24 10:13:11;;;;;;;12.25;6.40;;;;;;;;;;5037943;28;20292;-60
2022/03/24 10:15:39;;;;;;;9.25;6.47;;;;;;;;;;5030024;28;20182;-60
2022/03/24 10:18:04;;;;;;;9.38;6.00;;;;;;;;;;5040745;28;20177;-60
2022/03/24 10:20:30;;;;;;;10.43;6.38;;;;;;;;;;5044737;28;20255;-60
2022/03/24 10:22:57;;;;;;;10.38;6.63;;;;;;;;;;5019980;28;20174;-60
2022/03/24 10:25:25;;;;;;;10.68;7.00;;;;;;;;;;5016641;28;20182;-60
2022/03/24 10:27:51;;;;;;;12.43;8.10;;;;;;;;;;5022265;28;20654;-60
2022/03/24 10:30:16;;;;;;;7.32;6.53;;;;;;;;;;5043136;28;20185;-60
2022/03/24 10:32:53;;;;;;;26.33;11.35;;;;;;;;;;5036653;28;21021;-61
2022/03/24 10:35:18;;;;;;;11.05;5.95;;;;;;;;;;5042023;28;20208;-60
2022/03/24 10:37:51;;;;;;;10.55;6.50;;;;;;;;;;5045985;28;20201;-60
2022/03/24 10:40:16;;;;;;;9.68;6.30;;;;;;;;;;5040965;28;20169;-60
2022/03/24 10:42:42;;;;;;;10.45;6.72;;;;;;;;;;5036434;28;20174;-60
2022/03/24 10:45:07;;;;;;;7.80;6.25;;;;;;;;;;5019267;28;20177;-61
2022/03/24 10:47:42;;;;;;;12.27;6.45;;;;;;;;;;5021236;28;20185;-60
2022/03/24 10:50:20;;;;;;;9.45;6.68;;;;;;;;;;5030992;28;20308;-60
2022/03/24 10:52:46;;;;;;;12.52;6.75;;;;;;;;;;5036845;28;20240;-61
2022/03/24 10:55:11;;;;;;;8.27;6.28;;;;;;;;;;5035789;28;20757;-60
2022/03/24 10:57:37;;;;;;;9.18;6.43;;;;;;;;;;5036146;28;20636;-60
2022/03/24 11:00:04;;;;;;;9.98;6.07;;;;;;;;;;5044502;28;20169;-60
2022/03/24 11:02:31;;;;;;;9.50;6.50;;;;;;;;;;5040047;28;20577;-61
2022/03/24 11:05:00;;;;;;;11.98;6.38;;;;;;;;;;5021093;28;20206;-61
2022/03/24 11:07:26;;;;;;;9.07;6.47;;;;;;;;;;5019321;28;20177;-60
2022/03/24 11:09:51;;;;;;;10.70;6.18;;;;;;;;;;5028841;28;20177;-60
2022/03/24 11:12:26;;;;;;;11.60;6.82;;;;;;;;;;5032570;28;20696;-61
2022/03/24 11:14:54;;;;;;;16.73;10.77;;;;;;;;;;5043480;28;20173;-60
2022/03/24 11:17:20;;;;;;;13.45;7.45;;;;;;;;;;5045167;28;20552;-61
2022/03/24 11:19:50;;;;;;;20.85;9.23;;;;;;;;;;5032754;28;20183;-60
2022/03/24 11:22:15;;;;;;;16.45;10.20;;;;;;;;;;5042610;28;20630;-60
2022/03/24 11:24:40;;;;;;;9.32;5.78;;;;;;;;;;5033550;28;20182;-60
2022/03/24 11:27:06;;;;;;;10.10;6.85;;;;;;;;;;5018775;28;20251;-61
2022/03/24 11:29:31;;;;;;;8.40;6.35;;;;;;;;;;5020055;28;20846;-60
2022/03/24 11:31:58;;;;;;;31.42;16.13;;;;;;;;;;5037151;28;20205;-60
2022/03/24 11:34:24;;;;;;;13.32;7.20;;;;;;;;;;5047300;28;20200;-60
2022/03/24 11:36:50;;;;;;;14.63;6.10;;;;;;;;;;5040180;28;20650;-60
2022/03/24 11:39:15;;;;;;;11.43;6.50;;;;;;;;;;5042629;28;21075;-61
2022/03/24 11:41:43;;;;;;;12.85;7.15;;;;;;;;;;5040569;28;20182;-61
2022/03/24 11:44:11;;;;;;;9.43;6.88;;;;;;;;;;5038449;28;20243;-61
2022/03/24 11:46:45;;;;;;;11.57;7.32;;;;;;;;;;5037972;28;20193;-61
2022/03/24 11:49:18;;;;;;;8.85;6.90;;;;;;;;;;5038431;28;20239;-60
2022/03/24 11:51:45;;;;;;;9.40;6.93;;;;;;;;;;5040868;28;20209;-61
2022/03/24 11:54:11;;;;;;;10.43;7.15;;;;;;;;;;5038119;28;20185;-61
2022/03/24 11:56:36;;;;;;;13.80;6.65;;;;;;;;;;5036673;28;20184;-60
2022/03/24 11:59:03;;;;;;;9.20;6.50;;;;;;;;;;5037579;28;20177;-60
2022/03/24 12:01:31;;;;;;;10.75;6.85;;;;;;;;;;5041199;28;20196;-61
2022/03/24 12:03:56;;;;;;;10.27;6.40;;;;;;;;;;5031381;28;20748;-60
2022/03/24 12:06:40;;;;;;;10.45;6.38;;;;;;;;;;5044065;28;20182;-61
2022/03/24 12:09:06;;;;;;;9.60;6.93;;;;;;;;;;5037282;28;20239;-61
2022/03/24 12:11:32;;;;;;;12.57;6.72;;;;;;;;;;5039349;28;20581;-61
2022/03/24 12:13:57;;;;;;;9.88;6.05;;;;;;;;;;5040125;28;20177;-59
2022/03/24 12:16:26;;;;;;;8.60;5.57;;;;;;;;;;5037977;28;20177;-58
2022/03/24 12:18:52;;;;;;;8.95;6.10;;;;;;;;;;5031009;28;20181;-59
2022/03/24 12:21:19;;;;;;;33.25;18.77;;;;;;;;;;5032810;28;20174;-60
2022/03/24 12:24:03;;;;;;;20.80;12.50;;;;;;;;;;5031066;28;20257;-59
2022/03/24 12:26:35;;;;;;;7.43;6.00;;;;;;;;;;5046462;28;20184;-60
2022/03/24 12:29:10;;;;;;;11.07;6.75;;;;;;;;;;5037340;28;20858;-60
2022/03/24 12:31:56;;;;;;;19.10;12.32;;;;;;;;;;5027255;28;20185;-59
2022/03/24 12:34:22;;;;;;;10.20;5.40;;;;;;;;;;5028019;28;20193;-60
2022/03/24 12:36:47;;;;;;;11.30;6.57;;;;;;;;;;5043998;28;20176;-60
2022/03/24 12:39:28;;;;;;;6.65;5.82;;;;;;;;;;5038621;28;20651;-60
2022/03/24 12:42:08;;;;;;;8.15;5.53;;;;;;;;;;5047040;28;20256;-60
2022/03/24 12:44:54;;;;;;;6.05;4.85;;;;;;;;;;5032315;28;20238;-59
2022/03/24 12:47:39;;;;;;;7.57;6.10;;;;;;;;;;5031544;28;20197;-60
2022/03/24 12:50:17;;;;;;;7.57;6.28;;;;;;;;;;5035600;28;20213;-60
2022/03/24 12:52:55;;;;;;;6.38;5.63;;;;;;;;;;5037470;28;20199;-60
2022/03/24 12:55:31;;;;;;;7.45;5.90;;;;;;;;;;5040418;28;20177;-60
2022/03/24 12:57:57;;;;;;;10.48;6.18;;;;;;;;;;5039584;28;20190;-60
2022/03/24 13:00:27;;;;;;;10.80;6.47;;;;;;;;;;5039768;28;20177;-60
2022/03/24 13:02:52;;;;;;;7.40;5.85;;;;;;;;;;5044144;28;20717;-59
2022/03/24 13:05:28;;;;;;;10.95;7.00;;;;;;;;;;5039664;28;20188;-60
2022/03/24 13:07:54;;;;;;;10.15;6.00;;;;;;;;;;5040541;28;20176;-60
2022/03/24 13:10:20;;;;;;;7.03;5.70;;;;;;;;;;5035409;28;20203;-60
2022/03/24 13:12:47;;;;;;;13.15;6.25;;;;;;;;;;5035117;28;20197;-59
2022/03/24 13:15:26;;;;;;;6.30;5.35;;;;;;;;;;5038407;28;20204;-60
2022/03/24 13:17:53;;;;;;;7.97;6.10;;;;;;;;;;5044233;28;20173;-59
2022/03/24 13:20:19;;;;;;;8.52;6.32;;;;;;;;;;5034474;28;20174;-59
2022/03/24 13:22:47;;;;;;;9.07;7.10;;;;;;;;;;5039195;28;20185;-60
2022/03/24 13:25:14;;;;;;;12.00;6.28;;;;;;;;;;5037929;28;20188;-59
2022/03/24 13:27:40;;;;;;;12.90;5.70;;;;;;;;;;5035400;28;20575;-60
2022/03/24 13:30:06;;;;;;;5.70;5.10;;;;;;;;;;5034883;28;20169;-59
2022/03/24 13:32:32;;;;;;;9.23;5.68;;;;;;;;;;5035083;28;20251;-59
2022/03/24 13:35:02;;;;;;;6.45;5.43;;;;;;;;;;5037150;28;20663;-59
2022/03/24 13:37:40;;;;;;;6.82;5.78;;;;;;;;;;5042232;28;20216;-59
2022/03/24 13:40:07;;;;;;;11.55;6.95;;;;;;;;;;5043843;28;20231;-60
2022/03/24 13:42:34;;;;;;;10.48;6.40;;;;;;;;;;5043214;28;20188;-59
2022/03/24 13:44:59;;;;;;;9.27;6.72;;;;;;;;;;5037192;28;20209;-59
2022/03/24 13:47:26;;;;;;;10.60;6.78;;;;;;;;;;5039778;28;20205;-60
2022/03/24 13:49:58;;;;;;;10.00;6.95;;;;;;;;;;5032381;28;20231;-59
2022/03/24 13:52:36;;;;;;;5.60;5.10;;;;;;;;;;5026150;28;20243;-60
2022/03/24 13:55:08;;;;;;;10.18;5.95;;;;;;;;;;5016741;28;20189;-59
2022/03/24 13:57:45;;;;;;;7.93;5.47;;;;;;;;;;5018609;28;20169;-59
2022/03/24 14:00:11;;;;;;;10.05;6.65;;;;;;;;;;5043324;28;20181;-59
2022/03/24 14:02:37;;;;;;;13.57;10.00;;;;;;;;;;5040698;28;20190;-59
2022/03/24 14:05:09;;;;;;;10.88;7.22;;;;;;;;;;5033429;28;20173;-59
2022/03/24 14:07:54;;;;;;;11.00;7.50;;;;;;;;;;5033243;28;20250;-59
2022/03/24 14:10:20;;;;;;;12.68;8.43;;;;;;;;;;5027871;28;20170;-59
2022/03/24 14:12:52;;;;;;;10.80;6.05;;;;;;;;;;5033516;28;20236;-59
2022/03/24 14:15:21;;;;;;;22.60;12.93;;;;;;;;;;5018507;28;20189;-59
2022/03/24 14:18:06;;;;;;;14.55;9.15;;;;;;;;;;5021334;28;20170;-59
2022/03/24 14:20:39;;;;;;;9.82;7.53;;;;;;;;;;5038849;28;20279;-59
2022/03/24 14:23:04;;;;;;;10.60;5.82;;;;;;;;;;5037679;28;20166;-59
2022/03/24 14:25:30;;;;;;;6.38;4.93;;;;;;;;;;5046925;28;20212;-59
2022/03/24 14:27:55;;;;;;;5.07;4.07;;;;;;;;;;5034943;28;20194;-59
2022/03/24 14:30:27;;;;;;;8.20;6.30;;;;;;;;;;5037328;28;20197;-60
2022/03/24 14:32:53;;;;;;;10.05;6.53;;;;;;;;;;5039442;28;20520;-59
2022/03/24 14:35:23;;;;;;;5.45;4.30;;;;;;;;;;5024561;28;20189;-59